Tampa, Florida
Traffic Map
Current Weather Conditions
Tampa, Florida
Broken Clouds
Broken Clouds
26°
Feels Like: 27°
Wind Chill: 26° Ceiling: 3500
Heat Index: 27° Visibility: 10mi
Dew Point: 21° Wind: 15mph
Humidity: 76% Direction: 190° (S)
Pressure: 30.09in Gusts: 0mph
Raw Report DataKTPA 051953Z 19013KT 10SM SCT024 BKN035 BKN070 26/21 A3009 RMK AO2 SLP189 T02560211
Traffic Incident Summary
Active as of:
Severity:
Category:
InformationThere was an issue retrieving the traffic information for this location. Please try a different location or try again shortly.
Advertisements
Track Severe Weather on mobile